createdAt,value
2019-05-11T00:01:41.395Z,96740.33
2019-05-11T00:04:08.874Z,96725.72
2019-05-11T00:06:36.464Z,96732.80
2019-05-11T00:09:04.097Z,96742.83
2019-05-11T00:11:31.737Z,96728.14
2019-05-11T00:13:59.248Z,96732.09
2019-05-11T00:16:26.753Z,96731.14
2019-05-11T00:18:54.219Z,96731.48
2019-05-11T00:21:21.727Z,96727.92
2019-05-11T00:23:49.204Z,96720.41
2019-05-11T00:26:16.663Z,96718.26
2019-05-11T00:28:44.135Z,96721.80
2019-05-11T00:31:12.552Z,96727.70
2019-05-11T00:33:39.994Z,96723.17
2019-05-11T00:36:07.544Z,96722.00
2019-05-11T00:38:35.010Z,96725.25
2019-05-11T00:41:02.474Z,96722.31
2019-05-11T00:43:29.912Z,96722.15
2019-05-11T00:45:57.380Z,96729.95
2019-05-11T00:48:24.941Z,96732.22
2019-05-11T00:50:53.110Z,96727.26
2019-05-11T00:53:20.559Z,96732.11
2019-05-11T00:55:48.000Z,96720.73
2019-05-11T00:58:15.544Z,96728.37
2019-05-11T01:00:43.021Z,96726.75
2019-05-11T01:03:10.581Z,96740.25
2019-05-11T01:05:38.079Z,96733.73
2019-05-11T01:08:05.522Z,96733.45
2019-05-11T01:10:41.568Z,96742.11
2019-05-11T01:13:00.539Z,96744.02
2019-05-11T01:15:30.212Z,96747.56
2019-05-11T01:17:57.728Z,96749.08
2019-05-11T01:20:25.298Z,96735.80
2019-05-11T01:22:52.786Z,96727.88
2019-05-11T01:25:20.347Z,96734.89
2019-05-11T01:27:47.889Z,96731.63
2019-05-11T01:30:15.389Z,96734.25
2019-05-11T01:32:42.830Z,96736.09
2019-05-11T01:35:10.276Z,96733.72
2019-05-11T01:37:37.781Z,96734.83
2019-05-11T01:40:05.252Z,96740.72
2019-05-11T01:42:32.855Z,96745.95
2019-05-11T01:45:00.343Z,96746.15
2019-05-11T01:47:27.800Z,96749.05
2019-05-11T01:49:55.249Z,96756.50
2019-05-11T01:52:22.714Z,96748.80
2019-05-11T01:54:50.188Z,96745.27
2019-05-11T01:57:17.734Z,96737.97
2019-05-11T01:59:45.399Z,96743.77
2019-05-11T02:02:12.931Z,96757.27
2019-05-11T02:04:40.463Z,96751.00
2019-05-11T02:07:07.972Z,96750.27
2019-05-11T02:09:35.425Z,96750.89
2019-05-11T02:12:02.957Z,96750.20
2019-05-11T02:14:30.479Z,96751.43
2019-05-11T02:16:58.041Z,96747.47
2019-05-11T02:19:25.523Z,96753.72
2019-05-11T02:21:52.989Z,96754.55
2019-05-11T02:24:20.448Z,96749.91
2019-05-11T02:26:47.956Z,96760.31
2019-05-11T02:29:15.396Z,96743.55
2019-05-11T02:31:42.850Z,96738.03
2019-05-11T02:34:10.308Z,96732.91
2019-05-11T02:36:37.833Z,96740.17
2019-05-11T02:39:05.309Z,96734.06
2019-05-11T02:41:36.878Z,96737.61
2019-05-11T02:44:00.451Z,96731.30
2019-05-11T02:46:27.934Z,96728.58
2019-05-11T02:48:55.406Z,96740.05
2019-05-11T02:51:23.128Z,96741.07
2019-05-11T02:53:50.772Z,96734.97
2019-05-11T02:56:18.272Z,96727.67
2019-05-11T02:58:45.738Z,96730.52
2019-05-11T03:01:13.227Z,96731.00
2019-05-11T03:03:40.717Z,96733.23
2019-05-11T03:06:08.219Z,96732.05
2019-05-11T03:08:35.766Z,96733.03
2019-05-11T03:11:03.232Z,96727.62
2019-05-11T03:13:30.697Z,96734.08
2019-05-11T03:15:58.206Z,96724.22
2019-05-11T03:18:25.870Z,96733.78
2019-05-11T03:20:53.387Z,96727.73
2019-05-11T03:23:20.991Z,96740.27
2019-05-11T03:25:48.465Z,96744.78
2019-05-11T03:28:15.941Z,96736.78
2019-05-11T03:30:43.497Z,96737.06
2019-05-11T03:33:10.954Z,96742.34
2019-05-11T03:35:38.452Z,96737.85
2019-05-11T03:38:05.910Z,96736.58
2019-05-11T03:40:33.499Z,96742.72
2019-05-11T03:43:01.881Z,96748.42
2019-05-11T03:45:29.375Z,96747.93
2019-05-11T03:47:56.834Z,96750.91
2019-05-11T03:50:24.284Z,96748.51
2019-05-11T03:52:51.781Z,96746.12
2019-05-11T03:55:19.243Z,96744.75
2019-05-11T03:57:46.735Z,96739.73
2019-05-11T04:00:14.271Z,96739.48
2019-05-11T04:02:41.728Z,96726.81
2019-05-11T04:05:09.177Z,96728.77
2019-05-11T04:07:36.626Z,96735.74
2019-05-11T04:10:04.837Z,96750.97
2019-05-11T04:12:35.272Z,96760.22
2019-05-11T04:14:59.879Z,96760.64
2019-05-11T04:17:27.349Z,96765.64
2019-05-11T04:19:54.805Z,96771.91
2019-05-11T04:22:22.253Z,96779.27
2019-05-11T04:24:49.719Z,96764.73
2019-05-11T04:27:19.643Z,96784.22
2019-05-11T04:29:44.671Z,96779.84
2019-05-11T04:32:12.159Z,96790.82
2019-05-11T04:34:39.618Z,96797.84
2019-05-11T04:37:07.193Z,96795.08
2019-05-11T04:39:34.633Z,96795.91
2019-05-11T04:42:02.105Z,96803.22
2019-05-11T04:44:29.579Z,96797.80
2019-05-11T04:46:57.061Z,96795.20
2019-05-11T04:49:24.543Z,96803.45
2019-05-11T04:51:52.021Z,96795.48
2019-05-11T04:54:19.491Z,96797.01
2019-05-11T04:56:46.954Z,96808.33
2019-05-11T04:59:14.443Z,96815.20
2019-05-11T05:01:41.920Z,96814.09
2019-05-11T05:04:14.433Z,96821.69
2019-05-11T05:06:38.947Z,96820.87
2019-05-11T05:09:05.144Z,96823.64
2019-05-11T05:11:36.640Z,96825.59
2019-05-11T05:14:01.866Z,96832.20
2019-05-11T05:16:26.951Z,96830.75
2019-05-11T05:18:54.559Z,96836.95
2019-05-11T05:21:22.007Z,96840.63
2019-05-11T05:23:49.449Z,96844.47
2019-05-11T05:26:16.897Z,96845.59
2019-05-11T05:28:45.886Z,96848.36
2019-05-11T05:31:11.826Z,96846.22
2019-05-11T05:33:39.268Z,96845.39
2019-05-11T05:36:06.733Z,96846.34
2019-05-11T05:38:34.180Z,96845.80
2019-05-11T05:41:01.757Z,96842.09
2019-05-11T05:43:29.252Z,96829.06
2019-05-11T05:45:56.792Z,96830.05
2019-05-11T05:48:24.243Z,96829.75
2019-05-11T05:50:51.815Z,96827.81
2019-05-11T05:53:19.308Z,96833.20
2019-05-11T05:55:46.762Z,96824.16
2019-05-11T05:58:14.248Z,96821.11
2019-05-11T06:00:41.707Z,96826.89
2019-05-11T06:03:09.201Z,96820.41
2019-05-11T06:05:36.630Z,96811.86
2019-05-11T06:08:04.137Z,96814.63
2019-05-11T06:10:31.595Z,96807.27
2019-05-11T06:12:59.073Z,96811.16
2019-05-11T06:15:27.212Z,96809.01
2019-05-11T06:17:54.691Z,96811.53
2019-05-11T06:20:22.228Z,96822.16
2019-05-11T06:22:50.297Z,96827.80
2019-05-11T06:25:17.958Z,96831.69
2019-05-11T06:27:45.403Z,96837.72
2019-05-11T06:30:13.000Z,96836.19
2019-05-11T06:32:40.447Z,96837.37
2019-05-11T06:35:07.938Z,96841.77
2019-05-11T06:37:35.466Z,96846.02
2019-05-11T06:40:02.977Z,96848.78
2019-05-11T06:42:30.853Z,96848.87
2019-05-11T06:44:58.309Z,96861.80
2019-05-11T06:47:25.764Z,96856.23
2019-05-11T06:49:53.260Z,96856.02
2019-05-11T06:52:20.889Z,96864.37
2019-05-11T06:54:48.367Z,96868.49
2019-05-11T06:57:15.829Z,96879.41
2019-05-11T06:59:43.334Z,96880.23
2019-05-11T07:02:10.932Z,96839.19
2019-05-11T07:04:38.452Z,96828.45
2019-05-11T07:07:06.023Z,96848.08
2019-05-11T07:09:33.482Z,96863.70
2019-05-11T07:12:01.083Z,96863.83
2019-05-11T07:14:28.539Z,96872.88
2019-05-11T07:16:56.024Z,96869.13
2019-05-11T07:19:23.596Z,96861.58
2019-05-11T07:21:51.043Z,96866.25
2019-05-11T07:24:18.548Z,96863.28
2019-05-11T07:26:46.003Z,96856.41
2019-05-11T07:29:13.554Z,96866.88
2019-05-11T07:31:41.017Z,96858.61
2019-05-11T07:34:08.463Z,96841.83
2019-05-11T07:36:35.923Z,96841.22
2019-05-11T07:39:03.393Z,96840.30
2019-05-11T07:41:30.890Z,96835.30
2019-05-11T07:43:58.969Z,96843.83
2019-05-11T07:46:25.895Z,96841.34
2019-05-11T07:48:53.433Z,96855.77
2019-05-11T07:51:20.874Z,96874.81
2019-05-11T07:53:48.743Z,96876.97
2019-05-11T07:56:15.880Z,96887.30
2019-05-11T07:58:43.365Z,96887.63
2019-05-11T08:01:10.859Z,96919.78
2019-05-11T08:03:39.011Z,96922.72
2019-05-11T08:06:05.814Z,96908.98
2019-05-11T08:08:33.258Z,96929.18
2019-05-11T08:11:00.720Z,96963.86
2019-05-11T08:13:28.402Z,96976.28
2019-05-11T08:15:57.766Z,96968.27
2019-05-11T08:18:23.361Z,96988.06
2019-05-11T08:20:50.912Z,97001.70
2019-05-11T08:23:18.522Z,97007.64
2019-05-11T08:25:48.450Z,97011.47
2019-05-11T08:28:13.503Z,97025.22
2019-05-11T08:30:40.994Z,97041.10
2019-05-11T08:33:08.692Z,97026.33
2019-05-11T08:35:36.022Z,97031.19
2019-05-11T08:38:03.462Z,97029.42
2019-05-11T08:40:30.990Z,97027.63
2019-05-11T08:42:58.503Z,97027.87
2019-05-11T08:45:28.010Z,97031.49
2019-05-11T08:47:53.472Z,97035.96
2019-05-11T08:50:20.942Z,97041.59
2019-05-11T08:52:48.112Z,97046.06
2019-05-11T08:55:15.063Z,97045.22
2019-05-11T08:57:42.557Z,97045.13
2019-05-11T09:00:12.538Z,97047.28
2019-05-11T09:02:40.011Z,97055.88
2019-05-11T09:05:08.166Z,97050.70
2019-05-11T09:07:34.979Z,97053.99
2019-05-11T09:10:02.448Z,97050.42
2019-05-11T09:12:29.927Z,97045.63
2019-05-11T09:14:58.148Z,97065.67
2019-05-11T09:17:25.766Z,97067.58
2019-05-11T09:19:53.217Z,97071.53
2019-05-11T09:22:20.741Z,97082.27
2019-05-11T09:24:48.190Z,97080.17
2019-05-11T09:27:18.193Z,97079.23
2019-05-11T09:29:43.479Z,97083.27
2019-05-11T09:32:11.018Z,97083.59
2019-05-11T09:34:38.543Z,97082.43
2019-05-11T09:37:07.909Z,97079.72
2019-05-11T09:39:33.576Z,97073.56
2019-05-11T09:42:01.153Z,97089.67
2019-05-11T09:44:28.995Z,97089.80
2019-05-11T09:46:59.934Z,97084.30
2019-05-11T09:49:23.732Z,97072.48
2019-05-11T09:51:51.242Z,97077.13
2019-05-11T09:54:18.878Z,97073.81
2019-05-11T09:56:48.478Z,97070.23
2019-05-11T09:59:14.048Z,97075.13
2019-05-11T10:01:41.492Z,97064.99
2019-05-11T10:04:09.176Z,97062.59
2019-05-11T10:06:38.621Z,97059.11
2019-05-11T10:09:03.971Z,97049.45
2019-05-11T10:11:31.649Z,97051.47
2019-05-11T10:13:59.292Z,97060.98
2019-05-11T10:16:28.052Z,97059.84
2019-05-11T10:18:54.262Z,97044.61
2019-05-11T10:21:21.810Z,97061.05
2019-05-11T10:23:49.284Z,97067.05
2019-05-11T10:26:18.766Z,97080.13
2019-05-11T10:28:44.919Z,97070.16
2019-05-11T10:31:12.376Z,97070.44
2019-05-11T10:33:39.891Z,97078.95
2019-05-11T10:36:08.194Z,97080.52
2019-05-11T10:38:34.853Z,97088.05
2019-05-11T10:41:02.546Z,97089.58
2019-05-11T10:43:30.235Z,97088.25
2019-05-11T10:45:58.762Z,97094.54
2019-05-11T10:48:25.386Z,97096.94
2019-05-11T10:50:52.839Z,97096.96
2019-05-11T10:53:20.431Z,97100.26
2019-05-11T10:55:48.077Z,97086.65
2019-05-11T10:58:18.170Z,97090.49
2019-05-11T11:00:43.018Z,97094.05
2019-05-11T11:03:10.499Z,97099.80
2019-05-11T11:05:38.595Z,97107.95
2019-05-11T11:08:08.099Z,97100.72
2019-05-11T11:10:33.228Z,97103.76
2019-05-11T11:13:00.679Z,97099.84
2019-05-11T11:15:28.824Z,97097.23
2019-05-11T11:17:57.768Z,97090.06
2019-05-11T11:20:23.482Z,97094.88
2019-05-11T11:22:50.927Z,97094.47
2019-05-11T11:25:18.386Z,97075.48
2019-05-11T11:27:45.849Z,97066.50
2019-05-11T11:30:13.351Z,97073.23
2019-05-11T11:32:40.803Z,97061.01
2019-05-11T11:35:08.628Z,97068.52
2019-05-11T11:37:35.761Z,97057.54
2019-05-11T11:40:03.208Z,97052.19
2019-05-11T11:42:30.774Z,97047.52
2019-05-11T11:44:58.735Z,97034.66
2019-05-11T11:47:25.363Z,97049.48
2019-05-11T11:49:52.862Z,97052.88
2019-05-11T11:52:20.442Z,97047.55
2019-05-11T11:54:47.909Z,97059.64
2019-05-11T11:57:14.934Z,97064.89
2019-05-11T11:59:42.436Z,97057.19
2019-05-11T12:02:10.053Z,97069.83
2019-05-11T12:04:38.841Z,97086.23
2019-05-11T12:07:05.028Z,97102.73
2019-05-11T12:09:32.621Z,97114.31
2019-05-11T12:12:00.070Z,97118.82
2019-05-11T12:14:28.304Z,97126.25
2019-05-11T12:17:04.932Z,97140.06
2019-05-11T12:19:23.298Z,97133.82
2019-05-11T12:21:50.826Z,97156.83
2019-05-11T12:24:18.844Z,97176.22
2019-05-11T12:26:48.102Z,97183.62
2019-05-11T12:29:13.400Z,97190.38
2019-05-11T12:31:40.993Z,97185.64
2019-05-11T12:34:08.862Z,97202.65
2019-05-11T12:36:35.970Z,97222.19
2019-05-11T12:39:03.444Z,97210.91
2019-05-11T12:41:30.925Z,97224.05
2019-05-11T12:43:58.396Z,97234.97
2019-05-11T12:46:27.660Z,97234.02
2019-05-11T12:48:56.559Z,97249.75
2019-05-11T12:51:20.961Z,97251.01
2019-05-11T12:53:49.949Z,97250.03
2019-05-11T12:56:18.967Z,97246.65
2019-05-11T12:58:44.923Z,97248.59
2019-05-11T13:01:12.388Z,97250.95
2019-05-11T13:03:39.844Z,97249.47
2019-05-11T13:06:08.195Z,97242.58
2019-05-11T13:08:34.826Z,97233.59
2019-05-11T13:11:02.275Z,97226.69
2019-05-11T13:13:29.731Z,97203.26
2019-05-11T13:15:58.496Z,97195.38
2019-05-11T13:18:24.716Z,97190.55
2019-05-11T13:20:52.182Z,97184.91
2019-05-11T13:23:19.627Z,97187.42
2019-05-11T13:25:48.002Z,97183.09
2019-05-11T13:28:14.593Z,97193.50
2019-05-11T13:30:42.069Z,97202.81
2019-05-11T13:33:09.685Z,97209.41
2019-05-11T13:35:37.641Z,97205.22
2019-05-11T13:38:04.747Z,97213.40
2019-05-11T13:40:32.214Z,97190.95
2019-05-11T13:43:00.556Z,97207.45
2019-05-11T13:45:28.338Z,97202.08
2019-05-11T13:47:58.857Z,97222.28
2019-05-11T13:50:23.054Z,97217.83
2019-05-11T13:52:50.507Z,97222.45
2019-05-11T13:55:18.409Z,97228.01
2019-05-11T13:57:45.583Z,97235.08
2019-05-11T14:00:13.099Z,97241.67
2019-05-11T14:02:40.724Z,97258.89
2019-05-11T14:05:08.740Z,97273.84
2019-05-11T14:07:37.918Z,97270.50
2019-05-11T14:10:03.312Z,97269.16
2019-05-11T14:12:30.754Z,97275.95
2019-05-11T14:14:58.292Z,97276.56
2019-05-11T14:17:28.652Z,97271.81
2019-05-11T14:19:53.388Z,97279.55
2019-05-11T14:22:20.872Z,97286.95
2019-05-11T14:24:48.545Z,97281.59
2019-05-11T14:27:17.797Z,97293.09
2019-05-11T14:29:43.864Z,97302.81
2019-05-11T14:32:11.341Z,97308.78
2019-05-11T14:34:38.889Z,97314.38
2019-05-11T14:37:08.830Z,97303.34
2019-05-11T14:39:34.992Z,97319.07
2019-05-11T14:42:02.623Z,97323.25
2019-05-11T14:44:30.199Z,97319.20
2019-05-11T14:46:59.290Z,97327.31
2019-05-11T14:49:27.488Z,97325.29
2019-05-11T14:51:52.685Z,97311.38
2019-05-11T14:54:20.239Z,97309.83
2019-05-11T14:56:48.144Z,97310.97
2019-05-11T14:59:15.262Z,97315.72
2019-05-11T15:01:42.734Z,97311.20
2019-05-11T15:04:10.201Z,97315.40
2019-05-11T15:06:38.583Z,97317.84
2019-05-11T15:09:07.618Z,97322.54
2019-05-11T15:11:32.728Z,97327.80
2019-05-11T15:14:00.225Z,97343.95
2019-05-11T15:16:28.582Z,97377.70
2019-05-11T15:18:56.044Z,97373.06
2019-05-11T15:21:23.525Z,97374.34
2019-05-11T15:23:50.999Z,97379.67
2019-05-11T15:26:18.900Z,97383.80
2019-05-11T15:28:48.594Z,97381.16
2019-05-11T15:31:14.646Z,97381.16
2019-05-11T15:33:42.087Z,97385.24
2019-05-11T15:36:09.679Z,97382.61
2019-05-11T15:38:37.881Z,97393.98
2019-05-11T15:41:04.698Z,97413.55
2019-05-11T15:43:32.160Z,97420.91
2019-05-11T15:45:59.670Z,97420.82
2019-05-11T15:48:27.427Z,97428.58
2019-05-11T15:50:54.959Z,97429.12
2019-05-11T15:53:22.438Z,97431.05
2019-05-11T15:55:49.943Z,97443.73
2019-05-11T15:58:21.443Z,97446.82
2019-05-11T16:00:44.939Z,97450.25
2019-05-11T16:03:12.419Z,97453.22
2019-05-11T16:05:41.118Z,97450.22
2019-05-11T16:08:08.593Z,97444.20
2019-05-11T16:10:38.241Z,97448.88
2019-05-11T16:13:03.609Z,97439.45
2019-05-11T16:15:31.065Z,97450.12
2019-05-11T16:17:59.631Z,97445.55
2019-05-11T16:20:28.593Z,97454.03
2019-05-11T16:22:54.704Z,97452.19
2019-05-11T16:25:22.331Z,97455.58
2019-05-11T16:27:49.807Z,97452.87
2019-05-11T16:30:20.825Z,97454.48
2019-05-11T16:32:44.764Z,97460.34
2019-05-11T16:35:12.256Z,97465.27
2019-05-11T16:37:39.686Z,97461.17
2019-05-11T16:40:07.135Z,97466.83
2019-05-11T16:42:34.755Z,97464.20
2019-05-11T16:45:02.254Z,97466.47
2019-05-11T16:47:29.706Z,97465.29
2019-05-11T16:49:57.993Z,97466.26
2019-05-11T16:52:24.863Z,97476.02
2019-05-11T16:54:52.336Z,97478.97
2019-05-11T16:57:19.804Z,97478.97
2019-05-11T16:59:48.365Z,97478.23
2019-05-11T17:02:14.803Z,97483.98
2019-05-11T17:04:42.266Z,97487.26
2019-05-11T17:07:09.762Z,97485.99
2019-05-11T17:09:37.857Z,97483.58
2019-05-11T17:12:04.697Z,97481.31
2019-05-11T17:14:32.174Z,97484.93
2019-05-11T17:16:59.624Z,97490.62
2019-05-11T17:19:42.177Z,97499.42
2019-05-11T17:21:53.762Z,97506.06
2019-05-11T17:24:20.735Z,97511.31
2019-05-11T17:26:47.967Z,97511.35
2019-05-11T17:29:15.021Z,97505.04
2019-05-11T17:31:42.062Z,97498.20
2019-05-11T17:34:09.548Z,97507.72
2019-05-11T17:36:37.009Z,97519.48
2019-05-11T17:39:04.493Z,97515.40
2019-05-11T17:41:31.943Z,97516.81
2019-05-11T17:43:59.444Z,97521.02
2019-05-11T17:46:27.909Z,97523.05
2019-05-11T17:48:54.561Z,97528.12
2019-05-11T17:51:25.024Z,97541.13
2019-05-11T17:53:49.499Z,97547.56
2019-05-11T17:56:16.950Z,97544.94
2019-05-11T17:58:44.464Z,97544.94
2019-05-11T18:01:11.993Z,97550.13
2019-05-11T18:03:39.503Z,97554.35
2019-05-11T18:06:08.555Z,97560.30
2019-05-11T18:08:34.552Z,97552.83
2019-05-11T18:11:02.003Z,97556.36
2019-05-11T18:13:29.504Z,97558.45
2019-05-11T18:15:57.788Z,97548.67
2019-05-11T18:18:24.450Z,97557.38
2019-05-11T18:20:51.926Z,97557.07
2019-05-11T18:23:19.395Z,97559.14
2019-05-11T18:25:47.976Z,97573.70
2019-05-11T18:28:14.489Z,97576.77
2019-05-11T18:30:41.963Z,97587.30
2019-05-11T18:33:09.526Z,97578.57
2019-05-11T18:35:37.011Z,97581.67
2019-05-11T18:38:04.563Z,97584.75
2019-05-11T18:40:32.056Z,97584.43
2019-05-11T18:42:59.518Z,97599.31
2019-05-11T18:45:28.735Z,97596.42
2019-05-11T18:47:54.499Z,97595.27
2019-05-11T18:50:30.587Z,97590.16
2019-05-11T18:52:49.692Z,97595.69
2019-05-11T18:55:18.887Z,97600.20
2019-05-11T18:57:44.651Z,97611.49
2019-05-11T19:00:12.128Z,97615.97
2019-05-11T19:02:39.630Z,97620.00
2019-05-11T19:05:07.156Z,97615.92
2019-05-11T19:07:34.667Z,97626.53
2019-05-11T19:10:02.122Z,97629.61
2019-05-11T19:12:29.583Z,97632.09
2019-05-11T19:14:58.707Z,97637.99
2019-05-11T19:17:24.544Z,97640.22
2019-05-11T19:19:52.055Z,97642.33
2019-05-11T19:22:19.521Z,97637.95
2019-05-11T19:24:47.585Z,97639.41
2019-05-11T19:27:14.481Z,97648.97
2019-05-11T19:29:41.955Z,97653.13
2019-05-11T19:32:11.178Z,97655.18
2019-05-11T19:34:38.859Z,97657.36
2019-05-11T19:37:04.504Z,97655.19
2019-05-11T19:39:31.961Z,97662.92
2019-05-11T19:41:59.414Z,97668.32
2019-05-11T19:44:27.976Z,97667.17
2019-05-11T19:46:54.416Z,97674.16
2019-05-11T19:49:21.922Z,97674.69
2019-05-11T19:51:49.382Z,97669.23
2019-05-11T19:54:18.613Z,97673.56
2019-05-11T19:56:44.362Z,97678.13
2019-05-11T19:59:11.857Z,97671.79
2019-05-11T20:01:39.320Z,97680.73
2019-05-11T20:04:08.267Z,97692.95
2019-05-11T20:06:34.400Z,97686.80
2019-05-11T20:09:01.894Z,97687.56
2019-05-11T20:11:29.354Z,97687.09
2019-05-11T20:13:58.828Z,97686.86
2019-05-11T20:16:24.322Z,97686.47
2019-05-11T20:18:51.769Z,97686.39
2019-05-11T20:21:22.798Z,97691.53
2019-05-11T20:23:48.507Z,97692.84
2019-05-11T20:26:14.988Z,97693.73
2019-05-11T20:28:42.445Z,97695.73
2019-05-11T20:31:09.911Z,97695.30
2019-05-11T20:33:38.490Z,97700.90
2019-05-11T20:36:04.995Z,97707.92
2019-05-11T20:38:32.551Z,97715.66
2019-05-11T20:41:00.398Z,97720.84
2019-05-11T20:43:28.131Z,97726.66
2019-05-11T20:45:56.246Z,97739.30
2019-05-11T20:48:23.064Z,97747.27
2019-05-11T20:50:50.519Z,97756.11
2019-05-11T20:53:18.307Z,97760.64
2019-05-11T20:55:47.633Z,97760.56
2019-05-11T20:58:13.223Z,97757.38
2019-05-11T21:00:40.734Z,97749.20
2019-05-11T21:03:08.296Z,97746.22
2019-05-11T21:05:35.775Z,97746.57
2019-05-11T21:08:03.222Z,97754.99
2019-05-11T21:10:31.583Z,97756.16
2019-05-11T21:12:59.048Z,97761.13
2019-05-11T21:15:28.112Z,97768.72
2019-05-11T21:17:54.241Z,97762.05
2019-05-11T21:20:21.732Z,97756.67
2019-05-11T21:22:49.215Z,97755.38
2019-05-11T21:25:18.180Z,97746.73
2019-05-11T21:27:44.192Z,97750.28
2019-05-11T21:30:11.678Z,97740.81
2019-05-11T21:32:39.206Z,97742.12
2019-05-11T21:35:08.822Z,97739.19
2019-05-11T21:37:34.151Z,97746.13
2019-05-11T21:40:01.603Z,97752.95
2019-05-11T21:42:29.075Z,97753.20
2019-05-11T21:44:58.113Z,97765.47
2019-05-11T21:47:24.081Z,97761.50
2019-05-11T21:49:51.630Z,97763.22
2019-05-11T21:52:19.118Z,97767.76
2019-05-11T21:54:48.964Z,97768.76
2019-05-11T21:57:14.179Z,97769.75
2019-05-11T21:59:41.671Z,97770.31
2019-05-11T22:02:11.091Z,97768.47
2019-05-11T22:04:38.754Z,97764.53
2019-05-11T22:07:04.351Z,97761.88
2019-05-11T22:09:31.894Z,97764.64
2019-05-11T22:11:59.357Z,97748.88
2019-05-11T22:14:29.694Z,97744.06
2019-05-11T22:16:54.407Z,97749.84
2019-05-11T22:19:21.931Z,97759.80
2019-05-11T22:21:49.639Z,97754.69
2019-05-11T22:24:17.963Z,97759.09
2019-05-11T22:26:44.382Z,97760.72
2019-05-11T22:29:11.855Z,97773.33
2019-05-11T22:31:41.891Z,97772.56
2019-05-11T22:34:08.887Z,97771.48
2019-05-11T22:36:34.528Z,97768.56
2019-05-11T22:39:02.033Z,97766.02
2019-05-11T22:41:29.555Z,97788.60
2019-05-11T22:43:57.049Z,97783.03
2019-05-11T22:46:24.510Z,97789.89
2019-05-11T22:48:51.963Z,97793.20
2019-05-11T22:51:19.511Z,97800.39
2019-05-11T22:53:48.072Z,97797.34
2019-05-11T22:56:14.589Z,97799.25
2019-05-11T22:58:42.045Z,97798.65
2019-05-11T23:01:09.537Z,97798.23
2019-05-11T23:03:38.318Z,97797.39
2019-05-11T23:06:04.564Z,97793.23
2019-05-11T23:08:32.096Z,97791.14
2019-05-11T23:10:59.591Z,97798.48
2019-05-11T23:13:27.891Z,97787.66
2019-05-11T23:15:54.712Z,97783.66
2019-05-11T23:18:22.193Z,97780.41
2019-05-11T23:20:49.717Z,97773.92
2019-05-11T23:23:17.859Z,97773.92
2019-05-11T23:25:44.758Z,97774.40
2019-05-11T23:28:12.206Z,97775.13
2019-05-11T23:30:39.739Z,97774.13
2019-05-11T23:33:07.946Z,97784.45
2019-05-11T23:35:34.721Z,97782.42
2019-05-11T23:38:02.197Z,97775.00
2019-05-11T23:40:29.687Z,97774.55
2019-05-11T23:45:31.966Z,97783.73
2019-05-11T23:47:59.532Z,97777.09
2019-05-11T23:50:28.173Z,97776.50
2019-05-11T23:53:05.950Z,97778.34
2019-05-11T23:55:22.316Z,97774.67
2019-05-11T23:57:50.608Z,97773.44
